sensor_id;sensor_type;location;lat;lon;timestamp;P1;durP1;ratioP1;P2;durP2;ratioP2
45344;SDS011;31078;48.304;11.896;2023-07-31T00:01:00;4.90;;;1.60;;
45344;SDS011;31078;48.304;11.896;2023-07-31T00:03:27;5.40;;;1.63;;
45344;SDS011;31078;48.304;11.896;2023-07-31T00:05:53;4.85;;;1.65;;
45344;SDS011;31078;48.304;11.896;2023-07-31T00:08:20;4.88;;;1.55;;
45344;SDS011;31078;48.304;11.896;2023-07-31T00:10:50;4.25;;;1.90;;
45344;SDS011;31078;48.304;11.896;2023-07-31T00:13:17;3.92;;;2.00;;
45344;SDS011;31078;48.304;11.896;2023-07-31T00:15:44;4.68;;;1.60;;
45344;SDS011;31078;48.304;11.896;2023-07-31T00:18:10;5.72;;;2.00;;
45344;SDS011;31078;48.304;11.896;2023-07-31T00:20:37;5.65;;;2.00;;
45344;SDS011;31078;48.304;11.896;2023-07-31T00:23:03;3.83;;;1.70;;
45344;SDS011;31078;48.304;11.896;2023-07-31T00:25:30;5.47;;;1.70;;
45344;SDS011;31078;48.304;11.896;2023-07-31T00:27:57;4.72;;;2.17;;
45344;SDS011;31078;48.304;11.896;2023-07-31T00:30:24;4.93;;;1.60;;
45344;SDS011;31078;48.304;11.896;2023-07-31T00:32:52;5.90;;;2.15;;
45344;SDS011;31078;48.304;11.896;2023-07-31T00:35:18;5.45;;;1.80;;
45344;SDS011;31078;48.304;11.896;2023-07-31T00:37:44;6.20;;;1.75;;
45344;SDS011;31078;48.304;11.896;2023-07-31T00:40:12;4.50;;;1.55;;
45344;SDS011;31078;48.304;11.896;2023-07-31T00:42:39;5.25;;;1.55;;
45344;SDS011;31078;48.304;11.896;2023-07-31T00:45:08;3.42;;;1.50;;
45344;SDS011;31078;48.304;11.896;2023-07-31T00:47:35;3.80;;;1.40;;
45344;SDS011;31078;48.304;11.896;2023-07-31T00:50:01;3.42;;;1.58;;
45344;SDS011;31078;48.304;11.896;2023-07-31T00:52:28;3.58;;;1.60;;
45344;SDS011;31078;48.304;11.896;2023-07-31T00:54:54;2.58;;;1.23;;
45344;SDS011;31078;48.304;11.896;2023-07-31T00:57:21;3.28;;;1.52;;
45344;SDS011;31078;48.304;11.896;2023-07-31T00:59:47;2.70;;;1.35;;
45344;SDS011;31078;48.304;11.896;2023-07-31T01:02:14;3.03;;;1.38;;
45344;SDS011;31078;48.304;11.896;2023-07-31T01:04:41;2.33;;;1.35;;
45344;SDS011;31078;48.304;11.896;2023-07-31T01:07:10;3.67;;;1.60;;
45344;SDS011;31078;48.304;11.896;2023-07-31T01:09:40;3.60;;;1.50;;
45344;SDS011;31078;48.304;11.896;2023-07-31T01:12:12;2.58;;;1.42;;
45344;SDS011;31078;48.304;11.896;2023-07-31T01:14:50;4.40;;;1.58;;
45344;SDS011;31078;48.304;11.896;2023-07-31T01:17:19;2.08;;;1.50;;
45344;SDS011;31078;48.304;11.896;2023-07-31T01:19:45;4.82;;;1.92;;
45344;SDS011;31078;48.304;11.896;2023-07-31T01:22:22;5.65;;;1.58;;
45344;SDS011;31078;48.304;11.896;2023-07-31T01:25:05;3.95;;;1.67;;
45344;SDS011;31078;48.304;11.896;2023-07-31T01:27:44;5.55;;;1.50;;
45344;SDS011;31078;48.304;11.896;2023-07-31T01:30:18;2.95;;;1.63;;
45344;SDS011;31078;48.304;11.896;2023-07-31T01:32:51;2.60;;;1.60;;
45344;SDS011;31078;48.304;11.896;2023-07-31T01:35:20;4.75;;;1.70;;
45344;SDS011;31078;48.304;11.896;2023-07-31T01:37:47;2.42;;;1.50;;
45344;SDS011;31078;48.304;11.896;2023-07-31T01:40:13;2.40;;;1.35;;
45344;SDS011;31078;48.304;11.896;2023-07-31T01:42:40;3.85;;;1.67;;
45344;SDS011;31078;48.304;11.896;2023-07-31T01:45:08;3.88;;;1.83;;
45344;SDS011;31078;48.304;11.896;2023-07-31T01:47:35;3.63;;;1.38;;
45344;SDS011;31078;48.304;11.896;2023-07-31T01:50:02;2.75;;;1.40;;
45344;SDS011;31078;48.304;11.896;2023-07-31T01:52:29;5.82;;;1.70;;
45344;SDS011;31078;48.304;11.896;2023-07-31T01:54:55;3.92;;;1.83;;
45344;SDS011;31078;48.304;11.896;2023-07-31T01:57:22;4.80;;;1.95;;
45344;SDS011;31078;48.304;11.896;2023-07-31T01:59:48;3.25;;;1.63;;
45344;SDS011;31078;48.304;11.896;2023-07-31T02:02:16;3.35;;;1.50;;
45344;SDS011;31078;48.304;11.896;2023-07-31T02:04:43;3.53;;;1.55;;
45344;SDS011;31078;48.304;11.896;2023-07-31T02:07:09;3.47;;;1.70;;
45344;SDS011;31078;48.304;11.896;2023-07-31T02:09:36;2.92;;;1.65;;
45344;SDS011;31078;48.304;11.896;2023-07-31T02:12:02;3.55;;;1.75;;
45344;SDS011;31078;48.304;11.896;2023-07-31T02:14:29;4.50;;;1.98;;
45344;SDS011;31078;48.304;11.896;2023-07-31T02:16:55;2.75;;;1.40;;
45344;SDS011;31078;48.304;11.896;2023-07-31T02:19:23;3.85;;;1.70;;
45344;SDS011;31078;48.304;11.896;2023-07-31T02:21:50;4.40;;;1.80;;
45344;SDS011;31078;48.304;11.896;2023-07-31T02:24:16;4.80;;;2.13;;
45344;SDS011;31078;48.304;11.896;2023-07-31T02:26:43;4.90;;;1.83;;
45344;SDS011;31078;48.304;11.896;2023-07-31T02:29:09;3.70;;;1.83;;
45344;SDS011;31078;48.304;11.896;2023-07-31T02:31:36;4.97;;;1.88;;
45344;SDS011;31078;48.304;11.896;2023-07-31T02:34:02;3.42;;;1.80;;
45344;SDS011;31078;48.304;11.896;2023-07-31T02:36:30;3.65;;;1.90;;
45344;SDS011;31078;48.304;11.896;2023-07-31T02:38:56;4.43;;;1.95;;
45344;SDS011;31078;48.304;11.896;2023-07-31T02:41:23;3.28;;;1.65;;
45344;SDS011;31078;48.304;11.896;2023-07-31T02:43:49;6.88;;;1.88;;
45344;SDS011;31078;48.304;11.896;2023-07-31T02:46:16;4.93;;;2.10;;
45344;SDS011;31078;48.304;11.896;2023-07-31T02:48:42;2.80;;;1.90;;
45344;SDS011;31078;48.304;11.896;2023-07-31T02:51:09;2.45;;;1.60;;
45344;SDS011;31078;48.304;11.896;2023-07-31T02:53:37;3.95;;;1.95;;
45344;SDS011;31078;48.304;11.896;2023-07-31T02:56:03;2.80;;;1.85;;
45344;SDS011;31078;48.304;11.896;2023-07-31T02:58:30;4.80;;;2.13;;
45344;SDS011;31078;48.304;11.896;2023-07-31T03:00:57;4.18;;;2.13;;
45344;SDS011;31078;48.304;11.896;2023-07-31T03:03:24;4.63;;;1.98;;
45344;SDS011;31078;48.304;11.896;2023-07-31T03:05:51;5.75;;;2.30;;
45344;SDS011;31078;48.304;11.896;2023-07-31T03:08:17;4.13;;;1.90;;
45344;SDS011;31078;48.304;11.896;2023-07-31T03:10:45;3.58;;;1.92;;
45344;SDS011;31078;48.304;11.896;2023-07-31T03:13:12;4.03;;;2.30;;
45344;SDS011;31078;48.304;11.896;2023-07-31T03:15:39;4.68;;;2.50;;
45344;SDS011;31078;48.304;11.896;2023-07-31T03:18:08;4.43;;;2.30;;
45344;SDS011;31078;48.304;11.896;2023-07-31T03:20:34;5.35;;;2.13;;
45344;SDS011;31078;48.304;11.896;2023-07-31T03:23:01;4.88;;;2.25;;
45344;SDS011;31078;48.304;11.896;2023-07-31T03:25:27;4.18;;;2.30;;
45344;SDS011;31078;48.304;11.896;2023-07-31T03:27:55;4.10;;;2.35;;
45344;SDS011;31078;48.304;11.896;2023-07-31T03:30:22;5.63;;;2.30;;
45344;SDS011;31078;48.304;11.896;2023-07-31T03:32:48;3.22;;;2.00;;
45344;SDS011;31078;48.304;11.896;2023-07-31T03:35:15;4.63;;;2.03;;
45344;SDS011;31078;48.304;11.896;2023-07-31T03:37:41;5.03;;;2.08;;
45344;SDS011;31078;48.304;11.896;2023-07-31T03:40:08;4.72;;;2.00;;
45344;SDS011;31078;48.304;11.896;2023-07-31T03:42:35;4.60;;;2.35;;
45344;SDS011;31078;48.304;11.896;2023-07-31T03:45:04;4.47;;;2.10;;
45344;SDS011;31078;48.304;11.896;2023-07-31T03:47:31;4.50;;;2.40;;
45344;SDS011;31078;48.304;11.896;2023-07-31T03:49:58;7.80;;;2.42;;
45344;SDS011;31078;48.304;11.896;2023-07-31T03:52:24;3.30;;;2.03;;
45344;SDS011;31078;48.304;11.896;2023-07-31T03:54:50;4.30;;;2.03;;
45344;SDS011;31078;48.304;11.896;2023-07-31T03:57:16;4.10;;;2.45;;
45344;SDS011;31078;48.304;11.896;2023-07-31T03:59:43;5.47;;;2.28;;
45344;SDS011;31078;48.304;11.896;2023-07-31T04:02:10;3.90;;;2.58;;
45344;SDS011;31078;48.304;11.896;2023-07-31T04:04:39;4.90;;;2.22;;
45344;SDS011;31078;48.304;11.896;2023-07-31T04:07:05;4.70;;;2.30;;
45344;SDS011;31078;48.304;11.896;2023-07-31T04:09:32;3.75;;;2.40;;
45344;SDS011;31078;48.304;11.896;2023-07-31T04:11:58;6.15;;;2.38;;
45344;SDS011;31078;48.304;11.896;2023-07-31T04:14:25;5.80;;;2.70;;
45344;SDS011;31078;48.304;11.896;2023-07-31T04:16:51;3.38;;;2.13;;
45344;SDS011;31078;48.304;11.896;2023-07-31T04:19:19;2.80;;;2.10;;
45344;SDS011;31078;48.304;11.896;2023-07-31T04:21:46;5.93;;;2.45;;
45344;SDS011;31078;48.304;11.896;2023-07-31T04:24:12;6.57;;;2.50;;
45344;SDS011;31078;48.304;11.896;2023-07-31T04:26:39;4.43;;;2.53;;
45344;SDS011;31078;48.304;11.896;2023-07-31T04:29:05;4.75;;;2.25;;
45344;SDS011;31078;48.304;11.896;2023-07-31T04:31:33;3.58;;;2.17;;
45344;SDS011;31078;48.304;11.896;2023-07-31T04:33:59;6.40;;;2.88;;
45344;SDS011;31078;48.304;11.896;2023-07-31T04:36:27;4.93;;;2.20;;
45344;SDS011;31078;48.304;11.896;2023-07-31T04:38:53;6.63;;;2.63;;
45344;SDS011;31078;48.304;11.896;2023-07-31T04:41:20;4.50;;;2.53;;
45344;SDS011;31078;48.304;11.896;2023-07-31T04:43:47;7.65;;;2.33;;
45344;SDS011;31078;48.304;11.896;2023-07-31T04:46:13;4.38;;;2.00;;
45344;SDS011;31078;48.304;11.896;2023-07-31T04:48:40;3.83;;;2.30;;
45344;SDS011;31078;48.304;11.896;2023-07-31T04:51:06;3.58;;;2.33;;
45344;SDS011;31078;48.304;11.896;2023-07-31T04:53:35;4.15;;;2.30;;
45344;SDS011;31078;48.304;11.896;2023-07-31T04:56:02;5.93;;;2.60;;
45344;SDS011;31078;48.304;11.896;2023-07-31T04:58:29;3.67;;;2.17;;
45344;SDS011;31078;48.304;11.896;2023-07-31T05:00:55;5.05;;;2.25;;
45344;SDS011;31078;48.304;11.896;2023-07-31T05:03:22;4.13;;;2.00;;
45344;SDS011;31078;48.304;11.896;2023-07-31T05:05:49;5.18;;;2.05;;
45344;SDS011;31078;48.304;11.896;2023-07-31T05:08:16;3.95;;;2.05;;
45344;SDS011;31078;48.304;11.896;2023-07-31T05:10:44;5.28;;;2.33;;
45344;SDS011;31078;48.304;11.896;2023-07-31T05:13:10;4.65;;;1.95;;
45344;SDS011;31078;48.304;11.896;2023-07-31T05:15:37;6.30;;;2.70;;
45344;SDS011;31078;48.304;11.896;2023-07-31T05:18:04;4.60;;;2.42;;
45344;SDS011;31078;48.304;11.896;2023-07-31T05:20:30;6.22;;;2.53;;
45344;SDS011;31078;48.304;11.896;2023-07-31T05:22:56;5.80;;;2.50;;
45344;SDS011;31078;48.304;11.896;2023-07-31T05:25:23;6.63;;;3.15;;
45344;SDS011;31078;48.304;11.896;2023-07-31T05:27:51;8.60;;;2.95;;
45344;SDS011;31078;48.304;11.896;2023-07-31T05:30:17;4.03;;;2.20;;
45344;SDS011;31078;48.304;11.896;2023-07-31T05:32:44;8.77;;;2.53;;
45344;SDS011;31078;48.304;11.896;2023-07-31T05:35:10;3.83;;;2.25;;
45344;SDS011;31078;48.304;11.896;2023-07-31T05:37:37;5.07;;;2.33;;
45344;SDS011;31078;48.304;11.896;2023-07-31T05:40:04;5.30;;;2.40;;
45344;SDS011;31078;48.304;11.896;2023-07-31T05:42:31;6.03;;;2.00;;
45344;SDS011;31078;48.304;11.896;2023-07-31T05:44:59;7.72;;;2.33;;
45344;SDS011;31078;48.304;11.896;2023-07-31T05:47:26;6.38;;;2.03;;
45344;SDS011;31078;48.304;11.896;2023-07-31T05:49:52;3.58;;;2.20;;
45344;SDS011;31078;48.304;11.896;2023-07-31T05:52:19;5.18;;;2.30;;
45344;SDS011;31078;48.304;11.896;2023-07-31T05:54:45;7.53;;;2.40;;
45344;SDS011;31078;48.304;11.896;2023-07-31T05:57:12;5.90;;;2.38;;
45344;SDS011;31078;48.304;11.896;2023-07-31T05:59:38;7.10;;;2.25;;
45344;SDS011;31078;48.304;11.896;2023-07-31T06:02:06;4.22;;;2.30;;
45344;SDS011;31078;48.304;11.896;2023-07-31T06:04:33;5.13;;;2.33;;
45344;SDS011;31078;48.304;11.896;2023-07-31T06:07:00;7.15;;;2.20;;
45344;SDS011;31078;48.304;11.896;2023-07-31T06:09:26;3.67;;;2.28;;
45344;SDS011;31078;48.304;11.896;2023-07-31T06:11:53;4.53;;;2.15;;
45344;SDS011;31078;48.304;11.896;2023-07-31T06:14:19;3.95;;;2.05;;
45344;SDS011;31078;48.304;11.896;2023-07-31T06:16:46;8.60;;;2.50;;
45344;SDS011;31078;48.304;11.896;2023-07-31T06:19:14;5.55;;;2.20;;
45344;SDS011;31078;48.304;11.896;2023-07-31T06:21:40;8.10;;;2.72;;
45344;SDS011;31078;48.304;11.896;2023-07-31T06:24:09;5.60;;;2.28;;
45344;SDS011;31078;48.304;11.896;2023-07-31T06:26:37;5.65;;;2.35;;
45344;SDS011;31078;48.304;11.896;2023-07-31T06:29:03;4.88;;;2.08;;
45344;SDS011;31078;48.304;11.896;2023-07-31T06:31:30;5.72;;;2.38;;
45344;SDS011;31078;48.304;11.896;2023-07-31T06:33:56;6.25;;;2.15;;
45344;SDS011;31078;48.304;11.896;2023-07-31T06:36:24;5.95;;;2.20;;
45344;SDS011;31078;48.304;11.896;2023-07-31T06:38:51;5.07;;;2.17;;
45344;SDS011;31078;48.304;11.896;2023-07-31T06:41:17;4.03;;;2.10;;
45344;SDS011;31078;48.304;11.896;2023-07-31T06:43:44;5.55;;;2.50;;
45344;SDS011;31078;48.304;11.896;2023-07-31T06:46:11;4.82;;;2.22;;
45344;SDS011;31078;48.304;11.896;2023-07-31T06:48:37;3.90;;;2.45;;
45344;SDS011;31078;48.304;11.896;2023-07-31T06:51:04;4.95;;;2.50;;
45344;SDS011;31078;48.304;11.896;2023-07-31T06:53:32;6.22;;;2.30;;
45344;SDS011;31078;48.304;11.896;2023-07-31T06:55:58;4.20;;;2.08;;
45344;SDS011;31078;48.304;11.896;2023-07-31T06:58:25;6.03;;;2.10;;
45344;SDS011;31078;48.304;11.896;2023-07-31T07:00:51;6.00;;;2.30;;
45344;SDS011;31078;48.304;11.896;2023-07-31T07:03:18;4.05;;;2.30;;
45344;SDS011;31078;48.304;11.896;2023-07-31T07:05:45;5.03;;;2.22;;
45344;SDS011;31078;48.304;11.896;2023-07-31T07:08:11;2.75;;;1.83;;
45344;SDS011;31078;48.304;11.896;2023-07-31T07:10:40;4.85;;;2.35;;
45344;SDS011;31078;48.304;11.896;2023-07-31T07:13:06;4.93;;;1.92;;
45344;SDS011;31078;48.304;11.896;2023-07-31T07:15:32;7.40;;;2.10;;
45344;SDS011;31078;48.304;11.896;2023-07-31T07:17:59;3.47;;;1.65;;
45344;SDS011;31078;48.304;11.896;2023-07-31T07:20:25;4.10;;;1.83;;
45344;SDS011;31078;48.304;11.896;2023-07-31T07:22:52;4.05;;;1.88;;
45344;SDS011;31078;48.304;11.896;2023-07-31T07:25:18;5.60;;;1.98;;
45344;SDS011;31078;48.304;11.896;2023-07-31T07:27:47;4.60;;;1.90;;
45344;SDS011;31078;48.304;11.896;2023-07-31T07:30:13;3.38;;;1.75;;
45344;SDS011;31078;48.304;11.896;2023-07-31T07:32:41;5.10;;;2.08;;
45344;SDS011;31078;48.304;11.896;2023-07-31T07:36:47;6.82;;;2.13;;
45344;SDS011;31078;48.304;11.896;2023-07-31T07:39:14;3.90;;;2.00;;
45344;SDS011;31078;48.304;11.896;2023-07-31T07:41:40;3.70;;;1.88;;
45344;SDS011;31078;48.304;11.896;2023-07-31T07:44:07;32.55;;;4.32;;
45344;SDS011;31078;48.304;11.896;2023-07-31T07:46:33;18.17;;;3.33;;
45344;SDS011;31078;48.304;11.896;2023-07-31T07:49:00;55.60;;;4.25;;
45344;SDS011;31078;48.304;11.896;2023-07-31T07:51:26;35.88;;;3.10;;
45344;SDS011;31078;48.304;11.896;2023-07-31T07:53:56;73.00;;;4.55;;
45344;SDS011;31078;48.304;11.896;2023-07-31T07:56:23;14.07;;;3.15;;
45344;SDS011;31078;48.304;11.896;2023-07-31T07:58:50;45.45;;;3.95;;
45344;SDS011;31078;48.304;11.896;2023-07-31T08:01:16;51.95;;;4.55;;
45344;SDS011;31078;48.304;11.896;2023-07-31T08:03:43;59.15;;;14.70;;
45344;SDS011;31078;48.304;11.896;2023-07-31T08:06:09;40.05;;;11.82;;
45344;SDS011;31078;48.304;11.896;2023-07-31T08:08:36;23.88;;;4.28;;
45344;SDS011;31078;48.304;11.896;2023-07-31T08:11:05;34.47;;;3.55;;
45344;SDS011;31078;48.304;11.896;2023-07-31T08:13:31;34.55;;;4.03;;
45344;SDS011;31078;48.304;11.896;2023-07-31T08:15:58;45.42;;;3.60;;
45344;SDS011;31078;48.304;11.896;2023-07-31T08:18:25;34.95;;;3.72;;
45344;SDS011;31078;48.304;11.896;2023-07-31T08:20:51;139.98;;;56.60;;
45344;SDS011;31078;48.304;11.896;2023-07-31T08:23:18;51.85;;;4.35;;
45344;SDS011;31078;48.304;11.896;2023-07-31T08:25:44;21.73;;;6.85;;
45344;SDS011;31078;48.304;11.896;2023-07-31T08:28:12;50.80;;;16.67;;
45344;SDS011;31078;48.304;11.896;2023-07-31T08:30:39;25.83;;;3.53;;
45344;SDS011;31078;48.304;11.896;2023-07-31T08:33:06;20.88;;;3.03;;
45344;SDS011;31078;48.304;11.896;2023-07-31T08:35:33;34.60;;;4.60;;
45344;SDS011;31078;48.304;11.896;2023-07-31T08:37:59;28.23;;;3.58;;
45344;SDS011;31078;48.304;11.896;2023-07-31T08:40:26;21.75;;;2.97;;
45344;SDS011;31078;48.304;11.896;2023-07-31T08:42:54;32.83;;;4.53;;
45344;SDS011;31078;48.304;11.896;2023-07-31T08:45:28;14.77;;;3.17;;
45344;SDS011;31078;48.304;11.896;2023-07-31T08:47:56;23.60;;;3.65;;
45344;SDS011;31078;48.304;11.896;2023-07-31T08:50:24;7.15;;;3.10;;
45344;SDS011;31078;48.304;11.896;2023-07-31T08:52:52;15.10;;;3.17;;
45344;SDS011;31078;48.304;11.896;2023-07-31T08:55:19;5.95;;;2.10;;
45344;SDS011;31078;48.304;11.896;2023-07-31T08:57:48;9.93;;;2.80;;
45344;SDS011;31078;48.304;11.896;2023-07-31T09:00:17;5.18;;;2.50;;
45344;SDS011;31078;48.304;11.896;2023-07-31T09:02:48;11.43;;;2.95;;
45344;SDS011;31078;48.304;11.896;2023-07-31T09:05:20;5.88;;;2.30;;
45344;SDS011;31078;48.304;11.896;2023-07-31T09:07:48;14.27;;;3.60;;
45344;SDS011;31078;48.304;11.896;2023-07-31T09:10:16;15.80;;;7.30;;
45344;SDS011;31078;48.304;11.896;2023-07-31T09:12:42;3.72;;;2.65;;
45344;SDS011;31078;48.304;11.896;2023-07-31T09:15:10;5.28;;;2.80;;
45344;SDS011;31078;48.304;11.896;2023-07-31T09:17:37;5.32;;;2.20;;
45344;SDS011;31078;48.304;11.896;2023-07-31T09:20:15;11.27;;;3.90;;
45344;SDS011;31078;48.304;11.896;2023-07-31T09:22:43;23.20;;;3.67;;
45344;SDS011;31078;48.304;11.896;2023-07-31T09:25:16;3.42;;;2.03;;
45344;SDS011;31078;48.304;11.896;2023-07-31T09:27:47;3.53;;;1.70;;
45344;SDS011;31078;48.304;11.896;2023-07-31T09:30:15;5.13;;;2.50;;
45344;SDS011;31078;48.304;11.896;2023-07-31T09:32:42;3.53;;;1.70;;
45344;SDS011;31078;48.304;11.896;2023-07-31T09:35:20;7.95;;;2.50;;
45344;SDS011;31078;48.304;11.896;2023-07-31T09:37:49;16.35;;;3.40;;
45344;SDS011;31078;48.304;11.896;2023-07-31T09:40:25;5.55;;;1.70;;
45344;SDS011;31078;48.304;11.896;2023-07-31T09:42:53;5.10;;;2.15;;
45344;SDS011;31078;48.304;11.896;2023-07-31T09:45:20;4.80;;;2.13;;
45344;SDS011;31078;48.304;11.896;2023-07-31T09:47:46;7.65;;;2.17;;
45344;SDS011;31078;48.304;11.896;2023-07-31T09:50:14;13.95;;;2.85;;
45344;SDS011;31078;48.304;11.896;2023-07-31T09:52:42;5.85;;;2.33;;
45344;SDS011;31078;48.304;11.896;2023-07-31T09:55:09;5.65;;;1.85;;
45344;SDS011;31078;48.304;11.896;2023-07-31T09:57:36;6.30;;;1.95;;
45344;SDS011;31078;48.304;11.896;2023-07-31T10:00:06;8.75;;;2.15;;
45344;SDS011;31078;48.304;11.896;2023-07-31T10:02:35;3.72;;;1.58;;
45344;SDS011;31078;48.304;11.896;2023-07-31T10:05:03;5.00;;;1.80;;
45344;SDS011;31078;48.304;11.896;2023-07-31T10:07:31;7.57;;;2.63;;
45344;SDS011;31078;48.304;11.896;2023-07-31T10:10:04;6.93;;;1.98;;
45344;SDS011;31078;48.304;11.896;2023-07-31T10:12:34;7.22;;;1.88;;
45344;SDS011;31078;48.304;11.896;2023-07-31T10:15:01;4.53;;;2.00;;
45344;SDS011;31078;48.304;11.896;2023-07-31T10:17:29;3.88;;;1.60;;
45344;SDS011;31078;48.304;11.896;2023-07-31T10:19:57;3.72;;;1.65;;
45344;SDS011;31078;48.304;11.896;2023-07-31T10:22:26;5.13;;;2.10;;
45344;SDS011;31078;48.304;11.896;2023-07-31T10:24:54;5.00;;;2.10;;
45344;SDS011;31078;48.304;11.896;2023-07-31T10:27:25;3.95;;;1.75;;
45344;SDS011;31078;48.304;11.896;2023-07-31T10:29:52;12.00;;;2.42;;
45344;SDS011;31078;48.304;11.896;2023-07-31T10:32:20;6.13;;;1.90;;
45344;SDS011;31078;48.304;11.896;2023-07-31T10:34:49;3.50;;;1.42;;
45344;SDS011;31078;48.304;11.896;2023-07-31T10:37:23;3.67;;;1.58;;
45344;SDS011;31078;48.304;11.896;2023-07-31T10:39:58;3.75;;;1.67;;
45344;SDS011;31078;48.304;11.896;2023-07-31T10:42:32;5.05;;;1.90;;
45344;SDS011;31078;48.304;11.896;2023-07-31T10:45:01;4.80;;;1.65;;
45344;SDS011;31078;48.304;11.896;2023-07-31T10:47:28;8.43;;;2.30;;
45344;SDS011;31078;48.304;11.896;2023-07-31T10:50:15;4.88;;;2.35;;
45344;SDS011;31078;48.304;11.896;2023-07-31T10:52:44;4.28;;;1.80;;
45344;SDS011;31078;48.304;11.896;2023-07-31T10:55:15;5.35;;;2.05;;
45344;SDS011;31078;48.304;11.896;2023-07-31T10:57:51;4.32;;;2.10;;
45344;SDS011;31078;48.304;11.896;2023-07-31T11:00:19;4.22;;;1.77;;
45344;SDS011;31078;48.304;11.896;2023-07-31T11:02:56;2.35;;;1.67;;
45344;SDS011;31078;48.304;11.896;2023-07-31T11:08:19;4.40;;;1.63;;
45344;SDS011;31078;48.304;11.896;2023-07-31T11:10:47;5.32;;;2.00;;
45344;SDS011;31078;48.304;11.896;2023-07-31T11:13:16;5.47;;;1.85;;
45344;SDS011;31078;48.304;11.896;2023-07-31T11:15:43;6.72;;;2.05;;
45344;SDS011;31078;48.304;11.896;2023-07-31T11:18:09;6.47;;;2.22;;
45344;SDS011;31078;48.304;11.896;2023-07-31T11:20:36;13.50;;;3.40;;
45344;SDS011;31078;48.304;11.896;2023-07-31T11:23:05;9.55;;;3.03;;
45344;SDS011;31078;48.304;11.896;2023-07-31T11:25:33;7.38;;;2.83;;
45344;SDS011;31078;48.304;11.896;2023-07-31T11:28:02;5.55;;;1.95;;
45344;SDS011;31078;48.304;11.896;2023-07-31T11:30:31;7.13;;;2.20;;
45344;SDS011;31078;48.304;11.896;2023-07-31T11:32:58;4.60;;;2.22;;
45344;SDS011;31078;48.304;11.896;2023-07-31T11:35:25;14.18;;;3.55;;
45344;SDS011;31078;48.304;11.896;2023-07-31T11:37:52;9.02;;;2.10;;
45344;SDS011;31078;48.304;11.896;2023-07-31T11:40:19;12.27;;;2.67;;
45344;SDS011;31078;48.304;11.896;2023-07-31T11:42:46;4.15;;;2.28;;
45344;SDS011;31078;48.304;11.896;2023-07-31T11:45:12;3.92;;;2.15;;
45344;SDS011;31078;48.304;11.896;2023-07-31T11:47:40;4.78;;;2.30;;
45344;SDS011;31078;48.304;11.896;2023-07-31T11:50:09;4.80;;;2.17;;
45344;SDS011;31078;48.304;11.896;2023-07-31T11:52:38;5.07;;;2.08;;
45344;SDS011;31078;48.304;11.896;2023-07-31T11:55:08;3.70;;;1.98;;
45344;SDS011;31078;48.304;11.896;2023-07-31T11:57:36;4.53;;;2.20;;
45344;SDS011;31078;48.304;11.896;2023-07-31T12:00:05;6.43;;;2.22;;
45344;SDS011;31078;48.304;11.896;2023-07-31T12:02:34;6.57;;;2.10;;
45344;SDS011;31078;48.304;11.896;2023-07-31T12:05:03;4.82;;;2.22;;
45344;SDS011;31078;48.304;11.896;2023-07-31T12:07:42;3.30;;;1.92;;
45344;SDS011;31078;48.304;11.896;2023-07-31T12:10:22;9.38;;;3.30;;
45344;SDS011;31078;48.304;11.896;2023-07-31T12:12:55;14.93;;;3.25;;
45344;SDS011;31078;48.304;11.896;2023-07-31T12:15:29;7.93;;;2.30;;
45344;SDS011;31078;48.304;11.896;2023-07-31T12:17:58;4.82;;;2.33;;
45344;SDS011;31078;48.304;11.896;2023-07-31T12:20:26;3.75;;;1.90;;
45344;SDS011;31078;48.304;11.896;2023-07-31T12:22:55;4.25;;;2.15;;
45344;SDS011;31078;48.304;11.896;2023-07-31T12:25:22;3.65;;;2.03;;
45344;SDS011;31078;48.304;11.896;2023-07-31T12:27:50;4.88;;;1.90;;
45344;SDS011;31078;48.304;11.896;2023-07-31T12:30:29;6.28;;;3.10;;
45344;SDS011;31078;48.304;11.896;2023-07-31T12:32:55;8.05;;;2.70;;
45344;SDS011;31078;48.304;11.896;2023-07-31T12:35:22;9.48;;;2.97;;
45344;SDS011;31078;48.304;11.896;2023-07-31T12:37:50;15.20;;;3.30;;
45344;SDS011;31078;48.304;11.896;2023-07-31T12:40:16;4.18;;;1.58;;
45344;SDS011;31078;48.304;11.896;2023-07-31T12:42:43;4.32;;;2.00;;
45344;SDS011;31078;48.304;11.896;2023-07-31T12:45:09;4.72;;;2.00;;
45344;SDS011;31078;48.304;11.896;2023-07-31T12:47:36;7.50;;;1.83;;
45344;SDS011;31078;48.304;11.896;2023-07-31T12:50:03;6.47;;;2.60;;
45344;SDS011;31078;48.304;11.896;2023-07-31T12:52:29;4.97;;;2.10;;
45344;SDS011;31078;48.304;11.896;2023-07-31T12:54:57;4.15;;;2.33;;
45344;SDS011;31078;48.304;11.896;2023-07-31T12:57:24;3.35;;;1.90;;
45344;SDS011;31078;48.304;11.896;2023-07-31T12:59:50;4.35;;;2.00;;
45344;SDS011;31078;48.304;11.896;2023-07-31T13:02:17;10.68;;;2.80;;
45344;SDS011;31078;48.304;11.896;2023-07-31T13:04:43;6.18;;;2.30;;
45344;SDS011;31078;48.304;11.896;2023-07-31T13:07:10;6.10;;;2.22;;
45344;SDS011;31078;48.304;11.896;2023-07-31T13:09:36;10.90;;;2.88;;
45344;SDS011;31078;48.304;11.896;2023-07-31T13:12:05;3.28;;;1.83;;
45344;SDS011;31078;48.304;11.896;2023-07-31T13:14:32;5.82;;;1.92;;
45344;SDS011;31078;48.304;11.896;2023-07-31T13:16:58;5.70;;;1.70;;
45344;SDS011;31078;48.304;11.896;2023-07-31T13:19:24;6.90;;;2.70;;
45344;SDS011;31078;48.304;11.896;2023-07-31T13:21:51;14.50;;;2.95;;
45344;SDS011;31078;48.304;11.896;2023-07-31T13:24:18;4.22;;;2.20;;
45344;SDS011;31078;48.304;11.896;2023-07-31T13:26:44;9.20;;;2.28;;
45344;SDS011;31078;48.304;11.896;2023-07-31T13:29:12;5.35;;;2.17;;
45344;SDS011;31078;48.304;11.896;2023-07-31T13:31:38;5.45;;;1.85;;
45344;SDS011;31078;48.304;11.896;2023-07-31T13:34:05;4.00;;;1.95;;
45344;SDS011;31078;48.304;11.896;2023-07-31T13:36:31;4.60;;;1.90;;
45344;SDS011;31078;48.304;11.896;2023-07-31T13:38:59;14.02;;;2.47;;
45344;SDS011;31078;48.304;11.896;2023-07-31T13:41:26;6.95;;;1.80;;
45344;SDS011;31078;48.304;11.896;2023-07-31T13:43:52;8.27;;;2.00;;
45344;SDS011;31078;48.304;11.896;2023-07-31T13:46:20;6.15;;;2.30;;
45344;SDS011;31078;48.304;11.896;2023-07-31T13:48:47;6.13;;;2.60;;
45344;SDS011;31078;48.304;11.896;2023-07-31T13:51:13;4.00;;;2.55;;
45344;SDS011;31078;48.304;11.896;2023-07-31T13:53:39;6.38;;;2.53;;
45344;SDS011;31078;48.304;11.896;2023-07-31T13:56:06;4.13;;;2.50;;
45344;SDS011;31078;48.304;11.896;2023-07-31T13:58:33;11.40;;;3.25;;
45344;SDS011;31078;48.304;11.896;2023-07-31T14:00:59;4.35;;;1.98;;
45344;SDS011;31078;48.304;11.896;2023-07-31T14:03:27;4.57;;;2.25;;
45344;SDS011;31078;48.304;11.896;2023-07-31T14:05:54;4.72;;;1.80;;
45344;SDS011;31078;48.304;11.896;2023-07-31T14:08:21;8.98;;;2.70;;
45344;SDS011;31078;48.304;11.896;2023-07-31T14:10:48;15.45;;;3.90;;
45344;SDS011;31078;48.304;11.896;2023-07-31T14:13:14;5.57;;;2.42;;
45344;SDS011;31078;48.304;11.896;2023-07-31T14:15:41;10.52;;;2.20;;
45344;SDS011;31078;48.304;11.896;2023-07-31T14:18:08;6.00;;;1.90;;
45344;SDS011;31078;48.304;11.896;2023-07-31T14:20:36;4.85;;;1.95;;
45344;SDS011;31078;48.304;11.896;2023-07-31T14:23:03;7.28;;;1.77;;
45344;SDS011;31078;48.304;11.896;2023-07-31T14:25:29;4.38;;;1.98;;
45344;SDS011;31078;48.304;11.896;2023-07-31T14:27:56;5.82;;;2.00;;
45344;SDS011;31078;48.304;11.896;2023-07-31T14:30:22;4.82;;;1.90;;
45344;SDS011;31078;48.304;11.896;2023-07-31T14:32:49;6.40;;;2.35;;
45344;SDS011;31078;48.304;11.896;2023-07-31T14:35:15;22.30;;;2.47;;
45344;SDS011;31078;48.304;11.896;2023-07-31T14:37:43;9.68;;;1.85;;
45344;SDS011;31078;48.304;11.896;2023-07-31T14:40:11;5.93;;;2.55;;